Time;durP1;ratioP1;P1;durP2;ratioP2;P2;SDS_P1;SDS_P2;PMS_P1;PMS_P2;Temp;Humidity;BMP_temperature;BMP_pressure;BME280_temperature;BME280_humidity;BME280_pressure;Samples;Min_cycle;Max_cycle;Signal;HPM_P1;HPM_P2
2024/04/09 00:00:21;;;;;;;13.32;7.10;;;;;;;12.29;100.00;100129.06;5504179;26;19998;-70
2024/04/09 00:02:47;;;;;;;9.50;7.53;;;;;;;12.16;100.00;100165.16;5474117;26;20014;-70
2024/04/09 00:05:12;;;;;;;11.90;7.22;;;;;;;11.85;100.00;100080.38;5475112;26;20017;-71
2024/04/09 00:07:38;;;;;;;13.70;6.95;;;;;;;12.31;100.00;100134.97;5532005;25;20399;-69
2024/04/09 00:10:06;;;;;;;10.23;7.03;;;;;;;11.88;100.00;100159.25;5503573;26;20006;-69
2024/04/09 00:12:33;;;;;;;9.23;7.22;;;;;;;11.91;100.00;100118.38;5466238;26;19998;-71
2024/04/09 00:14:59;;;;;;;10.57;6.80;;;;;;;11.97;100.00;100113.09;5467480;26;19999;-69
2024/04/09 00:17:25;;;;;;;9.68;6.95;;;;;;;11.90;100.00;100115.91;5473918;26;20002;-70
2024/04/09 00:19:51;;;;;;;10.10;7.13;;;;;;;11.61;100.00;100014.03;5504629;25;20427;-70
2024/04/09 00:22:17;;;;;;;12.95;8.00;;;;;;;11.58;100.00;99981.06;5506475;25;20001;-69
2024/04/09 00:24:43;;;;;;;11.38;7.88;;;;;;;11.93;100.00;100060.59;5470582;26;20001;-70
2024/04/09 00:27:08;;;;;;;10.95;7.13;;;;;;;12.15;100.00;100050.53;5470701;26;20340;-70
2024/04/09 00:29:34;;;;;;;10.25;6.97;;;;;;;11.94;100.00;100048.69;5482457;26;20050;-70
2024/04/09 00:32:01;;;;;;;9.30;6.72;;;;;;;10.75;100.00;99914.97;5472236;26;20396;-70
2024/04/09 00:34:27;;;;;;;7.45;5.97;;;;;;;11.30;100.00;100096.47;5528487;25;20002;-73
2024/04/09 00:36:52;;;;;;;10.52;6.45;;;;;;;10.28;100.00;99993.38;5476973;26;20020;-70
2024/04/09 00:39:23;;;;;;;7.13;5.55;;;;;;;10.72;100.00;100044.72;5467818;26;20429;-70
2024/04/09 00:41:49;;;;;;;9.10;5.88;;;;;;;10.15;100.00;99992.03;5510181;26;20331;-69
2024/04/09 00:44:15;;;;;;;8.00;5.55;;;;;;;10.37;100.00;100008.38;5494984;26;20001;-70
2024/04/09 00:46:42;;;;;;;9.63;6.20;;;;;;;10.33;100.00;100036.44;5482412;26;20093;-70
2024/04/09 00:49:08;;;;;;;8.93;5.93;;;;;;;10.01;100.00;99983.06;5493741;26;20017;-70
2024/04/09 00:51:34;;;;;;;8.18;5.60;;;;;;;10.58;100.00;99895.13;5511166;26;20077;-70
2024/04/09 00:54:00;;;;;;;6.05;5.13;;;;;;;10.68;100.00;99809.22;5469407;26;20402;-74
2024/04/09 00:56:27;;;;;;;5.55;4.97;;;;;;;11.00;100.00;99898.06;5507289;25;19997;-70
2024/04/09 00:58:53;;;;;;;7.70;5.03;;;;;;;10.72;100.00;99895.53;5469533;26;20001;-72
2024/04/09 01:01:19;;;;;;;8.23;5.18;;;;;;;10.03;100.00;99852.66;5496366;26;20073;-70
2024/04/09 01:03:45;;;;;;;7.15;4.93;;;;;;;10.30;100.00;99924.75;5503258;25;20505;-70
2024/04/09 01:06:11;;;;;;;7.28;4.80;;;;;;;9.88;100.00;99829.38;5469906;26;19998;-69
2024/04/09 01:08:37;;;;;;;7.38;4.82;;;;;;;9.86;100.00;99783.75;5472936;26;20445;-70
2024/04/09 01:11:03;;;;;;;7.13;4.88;;;;;;;10.50;100.00;99841.13;5509915;26;20008;-69
2024/04/09 01:13:28;;;;;;;9.63;4.90;;;;;;;10.55;100.00;99846.91;5470434;26;20047;-70
2024/04/09 01:15:54;;;;;;;8.50;5.53;;;;;;;10.14;100.00;99862.53;5542492;25;19997;-70
2024/04/09 01:18:19;;;;;;;8.73;5.40;;;;;;;9.57;100.00;99831.91;5470620;26;20001;-70
2024/04/09 01:20:44;;;;;;;7.93;5.57;;;;;;;9.65;100.00;99698.03;5472423;25;20321;-69
2024/04/09 01:23:11;;;;;;;5.30;4.50;;;;;;;10.57;100.00;99725.72;5505509;26;19998;-70
2024/04/09 01:25:37;;;;;;;8.55;5.18;;;;;;;10.29;100.00;99735.06;5470185;26;20051;-69
2024/04/09 01:28:04;;;;;;;9.30;5.20;;;;;;;10.24;100.00;99683.59;5467261;26;20046;-70
2024/04/09 01:30:30;;;;;;;9.05;5.35;;;;;;;10.45;100.00;99703.22;5498559;26;20015;-70
2024/04/09 01:32:55;;;;;;;7.38;5.03;;;;;;;9.87;100.00;99711.75;5465492;26;20010;-72
2024/04/09 01:35:23;;;;;;;8.07;5.40;;;;;;;10.13;100.00;99655.97;5496625;26;20853;-72
2024/04/09 01:37:48;;;;;;;7.10;5.10;;;;;;;10.24;100.00;99646.28;5461565;26;20012;-70
2024/04/09 01:40:14;;;;;;;7.05;4.70;;;;;;;10.78;100.00;99619.91;5471849;26;19999;-70
2024/04/09 01:42:39;;;;;;;6.03;5.20;;;;;;;10.41;100.00;99669.47;5507462;26;19997;-74
2024/04/09 01:45:05;;;;;;;6.55;4.38;;;;;;;10.33;100.00;99671.41;5500921;26;19998;-69
2024/04/09 01:47:30;;;;;;;9.82;5.45;;;;;;;9.85;100.00;99557.81;5498332;26;20016;-70
2024/04/09 01:49:57;;;;;;;10.80;7.55;;;;;;;10.12;100.00;99648.41;5469166;25;20092;-70
2024/04/09 01:52:23;;;;;;;12.52;7.32;;;;;;;9.70;100.00;99668.28;5469511;26;19998;-70
2024/04/09 01:54:49;;;;;;;9.55;6.70;;;;;;;9.63;100.00;99660.00;5498643;26;20013;-70
2024/04/09 01:57:14;;;;;;;7.45;6.28;;;;;;;9.99;100.00;99564.13;5507245;26;20002;-70
2024/04/09 01:59:41;;;;;;;10.07;6.47;;;;;;;10.08;100.00;99568.88;5499048;26;20077;-70
2024/04/09 02:02:07;;;;;;;8.75;6.40;;;;;;;10.09;100.00;99565.50;5472000;26;20013;-70
2024/04/09 02:04:33;;;;;;;9.30;6.75;;;;;;;9.90;100.00;99582.19;5468498;26;19997;-70
2024/04/09 02:06:59;;;;;;;7.85;6.50;;;;;;;9.32;100.00;99509.59;5489071;26;19998;-71
2024/04/09 02:09:26;;;;;;;7.43;6.65;;;;;;;9.72;100.00;99409.34;5469390;26;19998;-70
2024/04/09 02:11:52;;;;;;;9.60;6.43;;;;;;;9.60;100.00;99519.72;5467210;26;20012;-71
2024/04/09 02:14:18;;;;;;;6.03;5.40;;;;;;;9.99;100.00;99433.78;5503435;26;19995;-69
2024/04/09 02:16:43;;;;;;;11.35;5.90;;;;;;;9.64;100.00;99336.03;5465065;26;19998;-71
2024/04/09 02:19:09;;;;;;;6.65;5.50;;;;;;;9.72;100.00;99409.34;5498478;26;20013;-69
2024/04/09 02:21:34;;;;;;;7.82;5.88;;;;;;;9.78;100.00;99364.28;5504691;26;20352;-69
2024/04/09 02:24:01;;;;;;;9.07;6.10;;;;;;;9.70;100.00;99442.41;5467842;26;20030;-70
2024/04/09 02:26:29;;;;;;;6.40;5.35;;;;;;;9.56;100.00;99409.03;5459170;26;20070;-70
2024/04/09 02:28:55;;;;;;;10.15;5.28;;;;;;;10.00;100.00;99428.66;5458144;26;20002;-70
2024/04/09 02:31:20;;;;;;;7.63;5.45;;;;;;;9.93;100.00;99409.44;5487837;25;20171;-69
2024/04/09 02:33:46;;;;;;;8.40;5.45;;;;;;;9.65;100.00;99352.88;5464844;25;19993;-72
2024/04/09 02:36:11;;;;;;;6.35;5.55;;;;;;;9.61;100.00;99413.06;5471011;26;20321;-70
2024/04/09 02:38:37;;;;;;;7.38;5.60;;;;;;;9.69;100.00;99371.38;5471156;26;19994;-70
2024/04/09 02:41:05;;;;;;;7.20;5.28;;;;;;;9.81;100.00;99407.31;5466304;26;20058;-70
2024/04/09 02:43:31;;;;;;;6.88;4.63;;;;;;;9.55;100.00;99458.09;5476165;26;20013;-73
2024/04/09 02:45:56;;;;;;;7.53;5.57;;;;;;;8.99;100.00;99416.81;5465390;26;20002;-71
2024/04/09 02:48:22;;;;;;;9.63;5.93;;;;;;;9.32;100.00;99461.41;5469358;26;20002;-70
2024/04/09 02:50:57;;;;;;;7.20;5.80;;;;;;;8.68;100.00;99373.81;5504337;26;20352;-69
2024/04/09 02:53:23;;;;;;;6.70;5.10;;;;;;;9.25;100.00;99444.69;5489985;26;20013;-69
2024/04/09 02:56:07;;;;;;;6.15;4.90;;;;;;;9.53;100.00;99406.59;5459377;26;20006;-69
2024/04/09 02:58:34;;;;;;;5.03;4.53;;;;;;;8.25;100.00;99315.19;5454786;25;20016;-71
2024/04/09 03:01:07;;;;;;;7.45;5.03;;;;;;;9.34;100.00;99449.50;5521490;25;19994;-70
2024/04/09 03:03:33;;;;;;;9.88;5.65;;;;;;;8.77;100.00;99389.59;5488126;26;19998;-71
2024/04/09 03:06:11;;;;;;;7.05;5.93;;;;;;;8.95;100.00;99529.31;5467807;26;19997;-70
2024/04/09 03:08:37;;;;;;;6.70;6.00;;;;;;;8.39;100.00;99429.56;5500721;26;20042;-69
2024/04/09 03:11:13;;;;;;;7.05;5.55;;;;;;;10.01;100.00;99443.03;5500148;25;20417;-73
2024/04/09 03:13:39;;;;;;;8.05;5.80;;;;;;;9.58;100.00;99480.88;5499411;25;20010;-69
2024/04/09 03:16:11;;;;;;;6.97;5.90;;;;;;;8.87;100.00;99449.28;5467345;26;20009;-69
2024/04/09 03:18:37;;;;;;;10.05;6.30;;;;;;;8.86;100.00;99543.91;5519229;25;20002;-68
2024/04/09 03:21:03;;;;;;;10.27;7.05;;;;;;;8.54;100.00;99463.75;5460620;26;20012;-72
2024/04/09 03:23:29;;;;;;;9.48;6.60;;;;;;;9.00;100.00;99552.81;5465862;26;20012;-70
2024/04/09 03:25:54;;;;;;;11.82;6.25;;;;;;;8.77;100.00;99508.72;5495166;25;19994;-69
2024/04/09 03:28:20;;;;;;;8.85;6.40;;;;;;;8.96;100.00;99550.38;5458919;26;20047;-69
2024/04/09 03:30:57;;;;;;;10.77;6.03;;;;;;;8.53;100.00;99540.63;5464679;26;20012;-69
2024/04/09 03:33:23;;;;;;;11.13;5.72;;;;;;;9.09;100.00;99549.19;5471098;26;20123;-68
2024/04/09 03:35:53;;;;;;;8.23;5.72;;;;;;;8.84;100.00;99578.59;5462309;26;20025;-70
2024/04/09 03:38:18;;;;;;;9.02;5.93;;;;;;;9.05;100.00;99517.19;5491963;26;20375;-69
2024/04/09 03:40:54;;;;;;;9.07;6.13;;;;;;;8.74;100.00;99490.19;5461885;26;19998;-69
2024/04/09 03:43:20;;;;;;;9.82;6.80;;;;;;;9.07;100.00;99478.22;5493611;26;20012;-69
2024/04/09 03:46:04;;;;;;;13.07;7.07;;;;;;;8.98;100.00;99543.56;5493686;26;20416;-70
2024/04/09 03:48:36;;;;;;;14.70;8.10;;;;;;;9.17;100.00;99552.31;5460217;26;20011;-71
2024/04/09 03:51:02;;;;;;;11.07;7.20;;;;;;;9.05;100.00;99517.19;5465189;26;20010;-69
2024/04/09 03:53:29;;;;;;;10.93;8.10;;;;;;;8.54;100.00;99501.75;5500995;26;19998;-70
2024/04/09 03:55:56;;;;;;;11.20;7.95;;;;;;;8.43;100.00;99466.59;5464445;26;20006;-69
2024/04/09 03:58:22;;;;;;;11.20;9.05;;;;;;;9.21;100.00;99556.44;5495037;26;20002;-70
2024/04/09 04:01:00;;;;;;;9.60;8.38;;;;;;;8.49;100.00;99468.97;5465307;26;20121;-70
2024/04/09 04:03:27;;;;;;;13.80;7.75;;;;;;;8.54;100.00;99539.72;5463025;26;20047;-69
2024/04/09 04:05:57;;;;;;;11.63;8.35;;;;;;;8.29;100.00;99493.16;5495572;26;20022;-69
2024/04/09 04:08:26;;;;;;;8.95;8.05;;;;;;;8.36;100.00;99444.81;5456501;26;19999;-70
2024/04/09 04:10:56;;;;;;;11.18;7.97;;;;;;;8.70;100.00;99609.41;5489232;26;20013;-69
2024/04/09 04:13:23;;;;;;;12.15;8.15;;;;;;;8.74;100.00;99524.81;5466736;26;20440;-71
2024/04/09 04:15:57;;;;;;;9.93;8.85;;;;;;;8.85;100.00;99608.16;5486276;26;20006;-70
2024/04/09 04:18:23;;;;;;;10.30;8.85;;;;;;;7.31;100.00;99490.53;5468963;26;20009;-70
2024/04/09 04:20:52;;;;;;;12.48;8.32;;;;;;;8.05;100.00;99514.84;5494394;26;19998;-70
2024/04/09 04:23:18;;;;;;;9.20;8.30;;;;;;;8.73;100.00;99650.69;5530593;25;19998;-70
2024/04/09 04:25:55;;;;;;;13.48;8.90;;;;;;;8.36;100.00;99616.22;5500466;26;20293;-72
2024/04/09 04:28:20;;;;;;;9.82;8.52;;;;;;;8.96;100.00;99634.88;5464572;26;20081;-70
2024/04/09 04:30:46;;;;;;;11.07;8.45;;;;;;;8.59;100.00;99721.16;5538554;25;20437;-70
2024/04/09 04:33:11;;;;;;;10.23;8.55;;;;;;;8.79;100.00;99631.13;5468006;26;20009;-72
2024/04/09 04:35:36;;;;;;;11.32;8.90;;;;;;;9.23;100.00;99671.34;5475163;26;19997;-72
2024/04/09 04:38:03;;;;;;;14.05;10.35;;;;;;;8.78;100.00;99663.25;5503381;25;20001;-71
2024/04/09 04:40:28;;;;;;;13.38;8.52;;;;;;;9.46;100.00;99644.47;5471768;26;19994;-74
2024/04/09 04:42:54;;;;;;;10.35;7.55;;;;;;;8.96;100.00;99745.59;5470073;26;20340;-70
2024/04/09 04:45:20;;;;;;;10.48;7.18;;;;;;;9.29;100.00;99752.34;5512157;25;19997;-73
2024/04/09 04:47:46;;;;;;;8.85;7.95;;;;;;;9.15;100.00;99767.09;5466752;26;20015;-71
2024/04/09 04:50:11;;;;;;;12.75;9.60;;;;;;;9.22;100.00;99760.97;5469484;26;20020;-73
2024/04/09 04:52:36;;;;;;;9.55;8.00;;;;;;;9.34;100.00;99704.84;5463206;26;20010;-69
2024/04/09 04:55:02;;;;;;;12.35;8.77;;;;;;;9.37;100.00;99733.47;5500138;26;19998;-70
2024/04/09 04:57:27;;;;;;;16.70;9.85;;;;;;;9.48;100.00;99767.03;5501341;25;20816;-70
2024/04/09 04:59:53;;;;;;;11.80;10.52;;;;;;;9.03;100.00;99618.63;5460299;26;20006;-70
2024/04/09 05:02:18;;;;;;;21.92;18.88;;;;;;;9.12;100.00;99655.56;5501831;26;20013;-71
2024/04/09 05:04:44;;;;;;;18.27;14.75;;;;;;;9.13;100.00;99619.22;5473055;26;20448;-71
2024/04/09 05:07:09;;;;;;;13.82;9.27;;;;;;;9.16;100.00;99619.13;5473053;26;20009;-72
2024/04/09 05:09:35;;;;;;;12.07;9.63;;;;;;;9.18;100.00;99731.47;5530193;25;20002;-72
2024/04/09 05:12:01;;;;;;;16.52;10.15;;;;;;;9.14;100.00;99636.91;5475920;25;21482;-71
2024/04/09 05:14:27;;;;;;;13.77;10.15;;;;;;;9.31;100.00;99532.47;5510871;26;20001;-72
2024/04/09 05:16:53;;;;;;;15.77;9.88;;;;;;;10.09;100.00;99651.84;5503158;26;20411;-71
2024/04/09 05:19:18;;;;;;;18.65;9.90;;;;;;;10.23;100.00;99582.84;5499574;26;20013;-71
2024/04/09 05:21:43;;;;;;;14.23;9.93;;;;;;;10.54;100.00;99573.28;5471229;26;20009;-71
2024/04/09 05:24:12;;;;;;;15.05;10.32;;;;;;;11.14;100.00;99568.59;5468252;26;19998;-72
2024/04/09 05:26:37;;;;;;;13.10;9.15;;;;;;;11.45;100.00;99568.25;5496888;26;20010;-71
2024/04/09 05:29:03;;;;;;;11.20;8.88;;;;;;;11.81;100.00;99549.03;5471604;26;20074;-71
2024/04/09 05:31:28;;;;;;;8.43;7.60;;;;;;;9.96;100.00;99555.78;5503662;25;20336;-72
2024/04/09 05:33:54;;;;;;;9.50;7.60;;;;;;;10.99;100.00;99625.06;5505583;26;20480;-70
2024/04/09 05:36:20;;;;;;;9.80;7.57;;;;;;;11.05;100.00;99649.50;5467674;26;19998;-69
2024/04/09 05:38:46;;;;;;;10.23;8.13;;;;;;;11.31;100.00;99545.88;5526405;25;20431;-70
2024/04/09 05:41:11;;;;;;;12.20;8.68;;;;;;;12.41;100.00;99530.41;5498792;26;20014;-69
2024/04/09 05:43:37;;;;;;;11.23;8.13;;;;;;;12.34;100.00;99487.41;5506283;26;20021;-70
2024/04/09 05:46:02;;;;;;;10.80;8.48;;;;;;;12.79;100.00;99472.63;5475076;26;20006;-70
2024/04/09 05:48:28;;;;;;;9.88;7.88;;;;;;;13.26;100.00;99536.81;5506672;26;20420;-70
2024/04/09 05:50:53;;;;;;;10.65;8.73;;;;;;;13.24;100.00;99618.59;5496371;26;20421;-70
2024/04/09 05:53:18;;;;;;;10.23;9.20;;;;;;;12.95;100.00;99658.09;5469540;26;20017;-70
2024/04/09 05:55:53;;;;;;;12.50;9.50;;;;;;;13.52;100.00;99521.97;5468111;25;20017;-71
2024/04/09 05:58:19;;;;;;;10.63;9.20;;;;;;;12.46;100.00;99673.78;5505360;26;20467;-70
2024/04/09 06:00:45;;;;;;;12.60;10.80;;;;;;;13.57;100.00;99527.66;5502851;26;20006;-71
2024/04/09 06:03:12;;;;;;;9.77;8.43;;;;;;;13.47;100.00;99539.22;5461505;26;20340;-70
2024/04/09 06:05:41;;;;;;;11.07;8.70;;;;;;;13.30;100.00;99549.38;5505412;25;20002;-70
2024/04/09 06:08:06;;;;;;;8.55;7.47;;;;;;;13.28;100.00;99550.34;5496147;26;20011;-71
2024/04/09 06:10:33;;;;;;;10.38;7.93;;;;;;;13.26;100.00;99636.38;5465953;26;20002;-70
2024/04/09 06:12:58;;;;;;;8.23;7.22;;;;;;;13.07;100.00;99557.25;5467422;26;20472;-69
2024/04/09 06:15:24;;;;;;;10.40;7.72;;;;;;;14.56;100.00;99570.47;5504555;26;20024;-72
2024/04/09 06:17:49;;;;;;;10.45;6.70;;;;;;;13.19;100.00;99612.88;5505662;26;20002;-70
2024/04/09 06:20:15;;;;;;;10.05;8.35;;;;;;;15.11;100.00;99593.22;5468704;26;20001;-73
2024/04/09 06:22:40;;;;;;;7.95;6.97;;;;;;;15.43;100.00;99594.94;5477100;26;20073;-71
2024/04/09 06:25:06;;;;;;;12.27;7.40;;;;;;;15.39;100.00;99650.59;5477564;26;20041;-70
2024/04/09 06:27:32;;;;;;;10.93;7.05;;;;;;;16.57;100.00;99631.22;5469602;26;20418;-73
2024/04/09 06:29:58;;;;;;;8.73;7.00;;;;;;;15.94;100.00;99629.69;5466772;26;22198;-70
2024/04/09 06:32:24;;;;;;;8.90;7.10;;;;;;;15.71;100.00;99825.75;5529583;25;20081;-70
2024/04/09 06:34:49;;;;;;;9.75;7.88;;;;;;;15.55;100.00;99750.56;5499948;25;20451;-70
2024/04/09 06:37:15;;;;;;;7.70;6.88;;;;;;;15.17;100.00;99765.28;5467945;26;20078;-70
2024/04/09 06:39:40;;;;;;;7.20;6.38;;;;;;;15.80;100.00;99866.31;5500607;26;20905;-70
2024/04/09 06:42:06;;;;;;;9.02;6.80;;;;;;;16.84;100.00;99900.94;5504735;26;20002;-71
2024/04/09 06:44:32;;;;;;;9.70;7.55;;;;;;;16.90;100.00;99954.56;5469199;26;20057;-69
2024/04/09 06:46:58;;;;;;;12.93;10.88;;;;;;;17.09;100.00;99968.06;5467500;26;20030;-70
2024/04/09 06:49:24;;;;;;;18.40;12.88;;;;;;;17.04;100.00;100080.50;5499355;25;20314;-70
2024/04/09 06:51:49;;;;;;;72.57;52.60;;;;;;;17.63;100.00;100028.47;5480555;26;20009;-71
2024/04/09 06:54:15;;;;;;;8.93;7.50;;;;;;;15.80;100.00;100178.25;5475300;25;19997;-70
2024/04/09 06:56:40;;;;;;;9.32;6.30;;;;;;;17.42;100.00;100169.28;5476250;26;20066;-72
2024/04/09 06:59:05;;;;;;;9.07;6.22;;;;;;;17.74;100.00;100111.00;5457344;26;20002;-70
2024/04/09 07:01:31;;;;;;;10.93;6.22;;;;;;;18.31;100.00;100182.38;5472381;26;20001;-70
2024/04/09 07:03:57;;;;;;;7.80;5.80;;;;;;;17.35;100.00;100274.13;5462332;26;20002;-71
2024/04/09 07:06:22;;;;;;;7.47;6.13;;;;;;;18.18;100.00;100238.84;5502795;26;20010;-70
2024/04/09 07:08:49;;;;;;;8.40;5.88;;;;;;;19.12;100.00;100230.06;5475609;26;20329;-70
2024/04/09 07:11:15;;;;;;;6.72;5.70;;;;;;;19.05;100.00;100294.06;5501308;26;20020;-70
2024/04/09 07:13:41;;;;;;;7.85;5.28;;;;;;;19.01;100.00;100362.97;5470797;26;20012;-70
2024/04/09 07:16:07;;;;;;;10.80;6.15;;;;;;;19.03;100.00;100350.00;5530974;25;20009;-70
2024/04/09 07:18:35;;;;;;;8.48;7.28;;;;;;;18.99;100.00;100384.59;5467342;26;20013;-70
2024/04/09 07:21:01;;;;;;;7.57;5.95;;;;;;;18.51;100.00;100407.88;5464549;26;20026;-71
2024/04/09 07:23:26;;;;;;;8.27;5.80;;;;;;;18.97;100.00;100337.47;5476202;25;20013;-70
2024/04/09 07:25:52;;;;;;;9.32;5.35;;;;;;;20.60;100.00;100359.41;5498866;26;20009;-72
2024/04/09 07:28:17;;;;;;;7.43;5.40;;;;;;;19.05;100.00;100454.66;5499040;25;20441;-70
2024/04/09 07:30:43;;;;;;;6.65;4.82;;;;;;;19.70;100.00;100414.88;5463654;26;20028;-70
2024/04/09 07:33:08;;;;;;;7.57;5.28;;;;;;;21.03;100.00;100413.59;5538763;25;20087;-70
2024/04/09 07:35:36;;;;;;;6.10;4.80;;;;;;;21.61;100.00;100429.56;5467095;26;20009;-70
2024/04/09 07:38:08;;;;;;;11.00;4.63;;;;;;;21.40;100.00;100491.34;5525120;25;20010;-70
2024/04/09 07:40:34;;;;;;;;;;;;;;;20.78;100.00;100553.06;5492695;26;20010;-70
2024/04/09 07:42:59;;;;;;;6.18;4.30;;;;;;;21.44;100.00;100528.19;5460339;26;21524;-70
2024/04/09 07:45:25;;;;;;;6.60;4.00;;;;;;;22.18;100.00;100533.69;5468204;26;20336;-70
2024/04/09 07:47:52;;;;;;;6.65;4.45;;;;;;;20.93;100.00;100607.25;5543228;25;20424;-70
2024/04/09 07:50:19;;;;;;;5.22;4.43;;;;;;;20.93;100.00;100467.63;5465574;26;19994;-73
2024/04/09 07:52:44;;;;;;;8.68;4.30;;;;;;;22.15;100.00;100612.44;5467004;26;20005;-70
2024/04/09 07:55:11;;;;;;;8.95;4.20;;;;;;;22.18;100.00;100666.66;5470930;26;20447;-70
2024/04/09 07:57:43;;;;;;;7.35;4.32;;;;;;;21.78;100.00;100592.41;5505499;26;20015;-69
2024/04/09 08:00:14;;;;;;;;;;;;;;;22.33;100.00;100711.44;5460054;26;19999;-70
2024/04/09 08:02:46;;;;;;;14.20;9.55;;;;;;;21.68;100.00;100753.59;5427138;26;19934;-70
2024/04/09 08:05:12;;;;;;;17.75;11.30;;;;;;;21.67;100.00;100675.09;5424018;26;20442;-74
2024/04/09 08:07:39;;;;;;;12.10;8.77;;;;;;;22.62;100.00;100727.75;5428298;26;20097;-70
2024/04/09 08:10:11;;;;;;;8.90;5.22;;;;;;;22.47;100.00;100759.81;5425275;26;20014;-70
2024/04/09 08:13:16;;;;;;;6.40;5.03;;;;;;;22.08;100.00;100784.75;5430595;26;20018;-70
2024/04/09 08:15:34;;;;;;;6.68;4.50;;;;;;;23.08;100.00;100713.34;5435078;26;20498;-70
2024/04/09 08:17:59;;;;;;;7.25;3.88;;;;;;;23.38;100.00;100755.44;5426703;26;20007;-71
2024/04/09 08:20:25;;;;;;;5.65;3.92;;;;;;;23.97;100.00;100863.81;5430161;26;20006;-72
2024/04/09 08:22:52;;;;;;;4.95;3.72;;;;;;;23.42;100.00;100881.50;5429943;26;20018;-71
2024/04/09 08:25:19;;;;;;;4.22;2.90;;;;;;;23.17;100.00;100821.75;5426183;26;20007;-71
2024/04/09 08:27:45;;;;;;;5.00;3.28;;;;;;;22.63;100.00;100971.38;5435059;26;20068;-71
2024/04/09 08:30:12;;;;;;;7.68;3.42;;;;;;;23.29;100.00;100875.44;5429342;26;20011;-70
2024/04/09 08:32:39;;;;;;;6.47;3.85;;;;;;;24.20;100.00;100838.03;5425831;26;20011;-70
2024/04/09 08:35:04;;;;;;;7.68;4.40;;;;;;;24.86;100.00;100893.88;5419473;26;20007;-70
2024/04/09 08:37:30;;;;;;;8.70;4.25;;;;;;;23.79;100.00;100844.31;5430258;26;20365;-70
2024/04/09 08:39:56;;;;;;;3.72;2.50;;;;;;;24.36;100.00;100906.22;5432555;26;20425;-69
2024/04/09 08:42:26;;;;;;;3.80;2.30;;;;;;;24.46;100.00;100897.66;5436235;26;20006;-71
2024/04/09 08:44:57;;;;;;;5.32;2.45;;;;;;;24.01;100.00;100906.00;5428408;26;20014;-70
2024/04/09 08:47:23;;;;;;;6.22;2.80;;;;;;;24.33;100.00;100881.25;5421525;26;20015;-70
2024/04/09 08:49:50;;;;;;;3.50;1.90;;;;;;;23.86;100.00;100907.91;5431844;26;20049;-70
2024/04/09 08:52:18;;;;;;;4.30;2.00;;;;;;;24.74;100.00;100886.16;5430587;26;20017;-70
2024/04/09 08:54:44;;;;;;;3.75;2.22;;;;;;;25.22;100.00;100846.09;5435257;26;20068;-71
2024/04/09 08:57:10;;;;;;;2.78;2.00;;;;;;;24.96;100.00;100872.41;5422726;26;20003;-69
2024/04/09 08:59:36;;;;;;;3.55;2.25;;;;;;;24.15;100.00;100879.09;5438521;26;20042;-70
2024/04/09 09:02:11;;;;;;;4.72;2.10;;;;;;;23.97;100.00;100915.78;5497939;26;20016;-70
2024/04/09 09:04:36;;;;;;;4.03;1.80;;;;;;;23.71;100.00;100926.31;5505468;26;20002;-69
2024/04/09 09:07:22;;;;;;;6.85;3.60;;;;;;;23.45;100.00;100878.72;5473176;26;20012;-70
2024/04/09 09:10:00;;;;;;;2.70;1.74;;;;;;;23.85;100.00;100830.06;5302682;26;10001101;-70
2024/04/09 09:12:26;;;;;;;3.33;2.05;;;;;;;23.91;100.00;100853.00;5465739;26;20188;-69
2024/04/09 09:14:56;;;;;;;2.55;2.10;;;;;;;23.80;100.00;100827.78;5465908;26;20013;-73
2024/04/09 09:17:22;;;;;;;2.95;1.88;;;;;;;23.19;100.00;100978.19;5500040;25;20023;-70
2024/04/09 09:19:57;;;;;;;4.88;1.98;;;;;;;25.00;100.00;100761.94;5465205;26;20002;-70
2024/04/09 09:22:23;;;;;;;3.30;1.90;;;;;;;24.89;100.00;100778.34;5466064;26;20005;-70
2024/04/09 09:24:57;;;;;;;3.30;2.00;;;;;;;26.00;100.00;100744.53;5492759;25;20013;-70
2024/04/09 09:27:22;;;;;;;3.03;1.98;;;;;;;24.07;100.00;100910.81;5526355;25;20021;-70
2024/04/09 09:29:53;;;;;;;2.95;2.05;;;;;;;24.06;100.00;100813.84;5496206;26;20437;-69
2024/04/09 09:32:19;;;;;;;2.58;1.95;;;;;;;23.15;100.00;100966.34;5462828;26;20038;-70
2024/04/09 09:34:47;;;;;;;2.90;1.40;;;;;;;24.16;100.00;100884.22;5494911;25;20325;-71
2024/04/09 09:37:13;;;;;;;1.60;1.45;;;;;;;24.56;100.00;100858.81;5469547;26;19998;-69
2024/04/09 09:39:39;;;;;;;2.30;1.60;;;;;;;24.26;100.00;100848.84;5498038;26;20030;-69
2024/04/09 09:42:10;;;;;;;2.25;1.40;;;;;;;24.50;100.00;100740.44;5493574;26;20435;-70
2024/04/09 09:44:37;;;;;;;1.80;1.48;;;;;;;25.47;100.00;100778.22;5470059;26;20005;-71
2024/04/09 09:47:05;;;;;;;1.90;1.45;;;;;;;25.29;100.00;100773.56;5466772;26;20001;-71
2024/04/09 09:49:31;;;;;;;2.55;1.40;;;;;;;25.60;100.00;100686.91;5493022;26;20006;-73
2024/04/09 09:51:57;;;;;;;3.20;1.48;;;;;;;24.98;99.23;100801.06;5507862;25;20020;-70
2024/04/09 09:54:23;;;;;;;1.42;1.10;;;;;;;23.20;100.00;100832.75;5498587;26;20444;-69
2024/04/09 09:56:53;;;;;;;2.28;1.20;;;;;;;25.18;100.00;100790.00;5532139;25;20071;-70
2024/04/09 09:59:21;;;;;;;4.00;1.40;;;;;;;24.50;100.00;100851.47;5495911;26;20072;-70
2024/04/09 10:01:49;;;;;;;2.15;1.30;;;;;;;24.29;100.00;100664.03;5504500;26;20037;-70
2024/04/09 10:04:16;;;;;;;2.25;1.70;;;;;;;25.07;100.00;100770.91;5474085;26;19998;-70
2024/04/09 10:06:41;;;;;;;1.80;1.20;;;;;;;25.40;100.00;100693.69;5470380;26;19998;-71
2024/04/09 10:09:07;;;;;;;2.65;1.60;;;;;;;25.94;100.00;100747.63;5533119;25;20447;-69
2024/04/09 10:11:43;;;;;;;1.58;1.38;;;;;;;24.81;100.00;100811.91;5468632;26;20018;-71
2024/04/09 10:14:08;;;;;;;2.25;1.50;;;;;;;26.09;100.00;100626.47;5465542;26;20155;-70
2024/04/09 10:16:34;;;;;;;1.65;1.10;;;;;;;24.95;100.00;100790.91;5491506;25;20009;-72
2024/04/09 10:19:01;;;;;;;1.50;1.00;;;;;;;24.48;100.00;100705.09;5500584;26;20002;-70
2024/04/09 10:21:28;;;;;;;1.95;1.10;;;;;;;25.36;98.73;100769.53;5494083;26;21846;-70
2024/04/09 10:24:00;;;;;;;2.53;1.10;;;;;;;24.75;95.16;100747.31;5474801;26;19997;-70
2024/04/09 10:26:27;;;;;;;1.42;1.00;;;;;;;25.56;97.73;100751.47;5490416;26;20073;-71
2024/04/09 10:29:05;;;;;;;2.17;1.40;;;;;;;25.83;99.89;100750.25;5508414;25;20002;-72
2024/04/09 10:31:30;;;;;;;3.60;1.42;;;;;;;25.89;100.00;100689.81;5543152;25;20001;-69
2024/04/09 10:33:59;;;;;;;4.53;1.35;;;;;;;25.10;93.72;100685.59;5498296;26;20078;-70
2024/04/09 10:36:24;;;;;;;2.47;1.05;;;;;;;25.94;94.53;100716.34;5503142;26;20563;-70
2024/04/09 10:38:50;;;;;;;2.35;1.05;;;;;;;25.51;96.14;100732.75;5464750;26;20002;-70
2024/04/09 10:41:16;;;;;;;2.38;1.30;;;;;;;25.70;98.23;100753.00;5497207;26;20460;-70
2024/04/09 10:43:42;;;;;;;2.63;1.15;;;;;;;25.03;97.64;100793.75;5497997;26;20013;-70
2024/04/09 10:46:08;;;;;;;2.63;1.23;;;;;;;25.13;97.57;100794.72;5507824;26;20030;-70
2024/04/09 10:48:34;;;;;;;2.60;1.58;;;;;;;25.53;100.00;100759.50;5507206;25;20008;-70
2024/04/09 10:51:00;;;;;;;3.40;1.42;;;;;;;25.29;98.22;100777.00;5465236;26;20002;-69
2024/04/09 10:53:25;;;;;;;2.85;1.30;;;;;;;25.11;97.50;100650.00;5470336;26;20002;-70
2024/04/09 10:56:04;;;;;;;2.53;1.30;;;;;;;25.93;99.16;100670.38;5502360;26;20002;-70
2024/04/09 10:58:29;;;;;;;2.40;1.23;;;;;;;25.99;100.00;100727.25;5503717;26;20002;-70
2024/04/09 11:00:55;;;;;;;1.33;1.13;;;;;;;25.58;100.00;100671.41;5499004;25;20357;-70
2024/04/09 11:03:22;;;;;;;2.28;1.27;;;;;;;25.33;100.00;100765.41;5493596;25;20037;-70
2024/04/09 11:05:51;;;;;;;2.67;1.20;;;;;;;25.99;99.36;100690.75;5460172;26;20002;-70
2024/04/09 11:08:31;;;;;;;2.67;1.60;;;;;;;25.15;100.00;100714.72;5497674;25;20006;-71
2024/04/09 11:10:59;;;;;;;5.47;1.60;;;;;;;25.52;100.00;100651.06;5499946;26;19999;-70
2024/04/09 11:13:26;;;;;;;2.97;1.70;;;;;;;26.09;100.00;100640.34;5489753;26;20077;-71
2024/04/09 11:15:51;;;;;;;3.03;1.55;;;;;;;26.50;100.00;100687.31;5510878;26;20005;-71
2024/04/09 11:18:23;;;;;;;1.85;1.40;;;;;;;25.40;100.00;100625.13;5481461;26;20491;-71
2024/04/09 11:20:59;;;;;;;2.50;1.48;;;;;;;25.59;100.00;100743.41;5469061;25;20425;-71